Terminal Aerodrome Forecast
Issued by NWS Cleveland, OH

Home | Current Version | Previous Version | Text Only | Print | Product List | Glossary On
Versions: 1 2 3 4 5 6 7 8 9 10 11 12 13 14 15 16 17 18 19
000
FTUS41 KCLE 152300 RRA
TAFERI
TAF
KERI 152343Z 1600/1624 17006KT P6SM VCSH SCT045 OVC080
      TEMPO 1600/1602 4SM -RA BR OVC020
     FM160200 30004KT 5SM -RA BR OVC020
     FM160600 33004KT 5SM BR OVC007
     FM161100 35004KT P6SM OVC015
     FM161500 33006KT P6SM SCT030=

USA.gov is the U.S. government's official web portal to all federal, state and local government web resources and services.